createdAt,value
2022-09-27T00:02:08.146Z,54.10
2022-09-27T00:04:34.811Z,54.20
2022-09-27T00:07:02.156Z,54.20
2022-09-27T00:09:28.698Z,54.20
2022-09-27T00:11:55.254Z,54.10
2022-09-27T00:14:21.819Z,54.20
2022-09-27T00:16:48.714Z,54.20
2022-09-27T00:19:18.370Z,54.20
2022-09-27T00:21:45.479Z,54.10
2022-09-27T00:24:16.475Z,54.10
2022-09-27T00:26:43.219Z,54.10
2022-09-27T00:29:10.744Z,54.00
2022-09-27T00:31:37.565Z,54.00
2022-09-27T00:34:04.808Z,54.00
2022-09-27T00:36:31.419Z,54.00
2022-09-27T00:38:59.883Z,54.00
2022-09-27T00:41:33.828Z,53.90
2022-09-27T00:44:04.260Z,53.90
2022-09-27T00:46:34.178Z,53.90
2022-09-27T00:49:22.113Z,54.60
2022-09-27T00:51:50.555Z,54.00
2022-09-27T00:54:17.623Z,54.00
2022-09-27T00:56:44.200Z,54.00
2022-09-27T00:59:38.557Z,54.00
2022-09-27T01:02:05.190Z,54.10
2022-09-27T01:04:32.085Z,54.10
2022-09-27T01:06:59.366Z,54.10
2022-09-27T01:09:25.940Z,54.30
2022-09-27T01:12:01.652Z,54.60
2022-09-27T01:14:30.870Z,54.60
2022-09-27T01:17:07.791Z,54.20
2022-09-27T01:19:59.654Z,54.00
2022-09-27T01:22:39.670Z,54.10
2022-09-27T01:25:12.952Z,54.00
2022-09-27T01:28:07.478Z,54.10
2022-09-27T01:30:52.196Z,54.00
2022-09-27T01:33:40.606Z,53.90
2022-09-27T01:36:21.692Z,53.90
2022-09-27T01:39:09.591Z,53.90
2022-09-27T01:41:56.678Z,53.80
2022-09-27T01:45:00.886Z,53.90
2022-09-27T01:47:32.725Z,53.80
2022-09-27T01:50:10.990Z,53.80
2022-09-27T01:52:49.646Z,53.70
2022-09-27T01:55:17.002Z,53.70
2022-09-27T01:57:46.428Z,53.80
2022-09-27T02:00:13.122Z,53.90
2022-09-27T02:02:44.713Z,53.90
2022-09-27T02:05:11.530Z,53.90
2022-09-27T02:07:59.602Z,53.90
2022-09-27T02:10:29.677Z,54.00
2022-09-27T02:13:22.577Z,53.90
2022-09-27T02:15:59.785Z,53.90
2022-09-27T02:18:32.688Z,54.00
2022-09-27T02:21:00.116Z,54.00
2022-09-27T02:23:35.225Z,54.00
2022-09-27T02:26:14.765Z,53.80
2022-09-27T02:28:55.070Z,53.80
2022-09-27T02:31:21.653Z,53.90
2022-09-27T02:33:54.225Z,53.80
2022-09-27T02:36:21.238Z,53.80
2022-09-27T02:38:47.821Z,53.80
2022-09-27T02:41:15.513Z,53.80
2022-09-27T02:43:42.313Z,53.60
2022-09-27T02:46:38.087Z,53.60
2022-09-27T02:49:13.402Z,53.60
2022-09-27T02:51:42.919Z,53.60
2022-09-27T02:54:22.198Z,53.70
2022-09-27T02:57:12.038Z,53.60
2022-09-27T02:59:47.106Z,53.70
2022-09-27T03:02:19.231Z,53.80
2022-09-27T03:04:55.719Z,53.80
2022-09-27T03:07:22.538Z,53.80
2022-09-27T03:09:51.076Z,53.90
2022-09-27T03:12:22.488Z,54.00
2022-09-27T03:14:49.314Z,53.90
2022-09-27T03:17:15.863Z,53.90
2022-09-27T03:19:42.422Z,53.90
2022-09-27T03:22:08.994Z,53.90
2022-09-27T03:24:35.545Z,54.00
2022-09-27T03:27:03.258Z,53.70
2022-09-27T03:29:29.818Z,53.80
2022-09-27T03:31:56.373Z,53.80
2022-09-27T03:34:22.970Z,53.80
2022-09-27T03:36:49.510Z,53.70
2022-09-27T03:39:16.174Z,53.70
2022-09-27T03:41:42.857Z,53.80
2022-09-27T03:44:09.487Z,53.70
2022-09-27T03:46:36.157Z,53.70
2022-09-27T03:49:02.779Z,53.60
2022-09-27T03:51:29.322Z,53.70
2022-09-27T03:53:56.727Z,53.60
2022-09-27T03:56:23.338Z,53.50
2022-09-27T03:58:49.893Z,53.70
2022-09-27T04:01:16.504Z,53.70
2022-09-27T04:03:43.293Z,53.80
2022-09-27T04:06:09.837Z,53.80
2022-09-27T04:08:36.512Z,53.80
2022-09-27T04:11:03.498Z,53.80
2022-09-27T04:13:30.110Z,53.90
2022-09-27T04:15:56.654Z,53.40
2022-09-27T04:18:23.217Z,52.20
2022-09-27T04:20:49.813Z,51.40
2022-09-27T04:23:16.740Z,50.70
2022-09-27T04:25:43.291Z,50.90
2022-09-27T04:28:09.856Z,50.70
2022-09-27T04:30:36.445Z,50.70
2022-09-27T04:33:03.042Z,50.80
2022-09-27T04:35:48.355Z,50.80
2022-09-27T04:38:14.936Z,51.00
2022-09-27T04:40:41.925Z,51.20
2022-09-27T04:43:09.067Z,51.40
2022-09-27T04:45:35.647Z,51.50
2022-09-27T04:48:02.225Z,51.60
2022-09-27T04:50:30.352Z,51.60
2022-09-27T04:52:58.705Z,51.60
2022-09-27T04:55:25.268Z,51.70
2022-09-27T04:57:51.865Z,51.70
2022-09-27T05:00:18.490Z,51.90
2022-09-27T05:02:45.568Z,52.10
2022-09-27T05:05:12.216Z,52.30
2022-09-27T05:07:39.617Z,51.40
2022-09-27T05:10:07.264Z,51.80
2022-09-27T05:15:01.321Z,51.60
2022-09-27T05:17:27.869Z,51.60
2022-09-27T05:19:54.444Z,51.80
2022-09-27T05:22:21.010Z,52.10
2022-09-27T05:24:48.104Z,51.80
2022-09-27T05:27:20.503Z,51.50
2022-09-27T05:29:47.904Z,51.60
2022-09-27T05:32:14.808Z,51.90
2022-09-27T05:34:41.542Z,52.10
2022-09-27T05:37:08.103Z,52.10
2022-09-27T05:39:34.638Z,52.10
2022-09-27T05:42:04.644Z,52.30
2022-09-27T05:44:31.420Z,52.20
2022-09-27T05:47:00.003Z,52.20
2022-09-27T05:49:26.725Z,52.40
2022-09-27T05:51:53.274Z,52.40
2022-09-27T05:54:19.830Z,52.40
2022-09-27T05:56:46.374Z,52.40
2022-09-27T05:59:12.930Z,52.50
2022-09-27T06:01:39.543Z,52.60
2022-09-27T06:04:06.156Z,52.50
2022-09-27T06:06:35.524Z,52.60
2022-09-27T06:09:02.517Z,52.60
2022-09-27T06:11:29.103Z,52.60
2022-09-27T06:13:55.745Z,52.60
2022-09-27T06:16:22.375Z,52.70
2022-09-27T06:18:49.102Z,52.70
2022-09-27T06:21:15.645Z,52.70
2022-09-27T06:23:42.427Z,53.30
2022-09-27T06:26:10.834Z,52.80
2022-09-27T06:28:37.424Z,52.80
2022-09-27T06:31:05.924Z,52.70
2022-09-27T06:33:32.617Z,52.90
2022-09-27T06:36:02.023Z,52.90
2022-09-27T06:38:28.579Z,52.80
2022-09-27T06:40:58.166Z,52.90
2022-09-27T06:43:25.862Z,52.90
2022-09-27T06:45:52.472Z,52.80
2022-09-27T06:48:19.037Z,52.90
2022-09-27T06:50:46.305Z,52.80
2022-09-27T06:53:13.977Z,52.90
2022-09-27T06:55:40.731Z,52.80
2022-09-27T06:58:26.118Z,52.90
2022-09-27T07:00:53.437Z,52.90
2022-09-27T07:03:22.896Z,52.90
2022-09-27T07:05:56.927Z,52.90
2022-09-27T07:08:25.041Z,52.90
2022-09-27T07:10:52.175Z,53.00
2022-09-27T07:13:18.894Z,53.00
2022-09-27T07:15:45.436Z,53.10
2022-09-27T07:18:12.002Z,53.10
2022-09-27T07:20:38.592Z,53.10
2022-09-27T07:23:05.913Z,53.10
2022-09-27T07:25:32.819Z,53.10
2022-09-27T07:28:03.580Z,53.10
2022-09-27T07:30:30.191Z,53.10
2022-09-27T07:33:00.395Z,53.10
2022-09-27T07:35:27.912Z,53.10
2022-09-27T07:37:55.344Z,53.60
2022-09-27T07:40:21.960Z,53.00
2022-09-27T07:42:48.575Z,53.00
2022-09-27T07:45:17.151Z,53.10
2022-09-27T07:47:43.712Z,53.10
2022-09-27T07:50:10.559Z,53.00
2022-09-27T07:52:44.522Z,53.10
2022-09-27T07:55:11.576Z,53.20
2022-09-27T07:57:38.498Z,53.00
2022-09-27T08:00:07.205Z,53.00
2022-09-27T08:02:33.854Z,53.10
2022-09-27T08:05:00.536Z,53.10
2022-09-27T08:07:27.635Z,53.20
2022-09-27T08:09:54.266Z,53.20
2022-09-27T08:12:21.492Z,53.20
2022-09-27T08:14:48.567Z,53.20
2022-09-27T08:17:15.236Z,53.20
2022-09-27T08:19:41.806Z,53.20
2022-09-27T08:22:08.457Z,53.20
2022-09-27T08:24:35.007Z,53.20
2022-09-27T08:27:02.506Z,53.30
2022-09-27T08:29:29.066Z,53.80
2022-09-27T08:31:55.679Z,53.10
2022-09-27T08:34:22.836Z,53.10
2022-09-27T08:36:49.477Z,53.10
2022-09-27T08:39:16.103Z,53.20
2022-09-27T08:42:10.158Z,53.10
2022-09-27T08:45:14.637Z,53.20
2022-09-27T08:47:43.804Z,53.10
2022-09-27T08:50:39.014Z,53.10
2022-09-27T08:53:37.291Z,53.00
2022-09-27T08:56:04.246Z,53.10
2022-09-27T08:58:35.834Z,53.00
2022-09-27T09:01:04.209Z,53.00
2022-09-27T09:03:33.201Z,53.10
2022-09-27T09:06:14.594Z,53.10
2022-09-27T09:08:50.966Z,53.20
2022-09-27T09:11:52.808Z,53.20
2022-09-27T09:14:37.947Z,53.30
2022-09-27T09:17:30.270Z,53.10
2022-09-27T09:20:24.644Z,53.20
2022-09-27T09:23:27.971Z,53.10
2022-09-27T09:26:19.234Z,53.20
2022-09-27T09:29:01.507Z,53.30
2022-09-27T09:32:08.219Z,53.10
2022-09-27T09:34:43.267Z,53.20
2022-09-27T09:37:24.644Z,53.10
2022-09-27T09:39:59.796Z,53.20
2022-09-27T09:42:40.981Z,53.10
2022-09-27T09:45:22.869Z,53.10
2022-09-27T09:48:32.786Z,53.00
2022-09-27T09:51:01.197Z,52.90
2022-09-27T09:53:39.432Z,52.90
2022-09-27T09:56:19.663Z,52.90
2022-09-27T09:58:48.861Z,52.90
2022-09-27T10:01:30.345Z,53.00
2022-09-27T10:03:57.120Z,53.10
2022-09-27T10:06:24.243Z,53.10
2022-09-27T10:08:54.615Z,53.10
2022-09-27T10:11:31.502Z,53.20
2022-09-27T10:13:58.314Z,53.20
2022-09-27T10:16:25.978Z,53.20
2022-09-27T10:18:56.211Z,53.30
2022-09-27T10:21:25.605Z,53.30
2022-09-27T10:24:04.924Z,53.30
2022-09-27T10:26:31.912Z,53.20
2022-09-27T10:28:58.481Z,53.20
2022-09-27T10:31:25.124Z,53.20
2022-09-27T10:34:02.561Z,53.30
2022-09-27T10:36:33.326Z,53.30
2022-09-27T10:39:01.774Z,53.40
2022-09-27T10:41:34.974Z,53.40
2022-09-27T10:44:17.722Z,53.50
2022-09-27T10:46:45.068Z,53.30
2022-09-27T10:49:29.347Z,53.40
2022-09-27T10:51:57.971Z,53.30
2022-09-27T10:54:28.351Z,53.30
2022-09-27T10:57:06.086Z,53.30
2022-09-27T10:59:36.834Z,53.30
2022-09-27T11:02:03.630Z,53.20
2022-09-27T11:04:35.676Z,53.30
2022-09-27T11:07:12.689Z,53.30
2022-09-27T11:10:02.987Z,53.30
2022-09-27T11:12:30.673Z,53.30
2022-09-27T11:14:59.157Z,53.30
2022-09-27T11:17:35.170Z,53.20
2022-09-27T11:20:14.450Z,53.50
2022-09-27T11:22:54.981Z,53.60
2022-09-27T11:25:59.108Z,53.50
2022-09-27T11:28:51.117Z,53.50
2022-09-27T11:31:48.565Z,53.50
2022-09-27T11:34:56.741Z,53.10
2022-09-27T11:37:50.246Z,53.20
2022-09-27T11:40:27.477Z,53.20
2022-09-27T11:43:09.957Z,53.30
2022-09-27T11:46:14.369Z,53.80
2022-09-27T11:48:43.517Z,53.80
2022-09-27T11:51:31.274Z,54.30
2022-09-27T11:54:18.976Z,54.80
2022-09-27T11:57:10.586Z,53.90
2022-09-27T11:59:50.297Z,53.90
2022-09-27T12:02:53.782Z,53.90
2022-09-27T12:05:23.919Z,54.00
2022-09-27T12:08:09.167Z,53.80
2022-09-27T12:10:36.922Z,53.80
2022-09-27T12:13:04.075Z,53.90
2022-09-27T12:15:33.814Z,55.60
2022-09-27T12:18:21.816Z,55.00
2022-09-27T12:20:48.362Z,54.50
2022-09-27T12:23:37.199Z,54.20
2022-09-27T12:26:06.503Z,54.10
2022-09-27T12:28:51.184Z,54.20
2022-09-27T12:31:29.851Z,54.10
2022-09-27T12:34:02.366Z,53.80
2022-09-27T12:36:38.746Z,53.90
2022-09-27T12:39:12.205Z,53.60
2022-09-27T12:41:39.750Z,53.60
2022-09-27T12:44:06.319Z,53.60
2022-09-27T12:46:42.404Z,53.50
2022-09-27T12:49:32.082Z,53.60
2022-09-27T12:52:00.552Z,53.60
2022-09-27T12:54:29.809Z,53.50
2022-09-27T12:57:08.696Z,53.50
2022-09-27T12:59:51.496Z,53.50
2022-09-27T13:03:03.802Z,53.30
2022-09-27T13:06:04.667Z,53.10
2022-09-27T13:08:54.337Z,53.20
2022-09-27T13:11:24.953Z,53.50
2022-09-27T13:13:55.147Z,53.50
2022-09-27T13:16:21.757Z,53.60
2022-09-27T13:18:49.243Z,53.60
2022-09-27T13:21:51.182Z,53.70
2022-09-27T13:24:39.958Z,54.00
2022-09-27T13:27:34.895Z,54.00
2022-09-27T13:30:07.527Z,53.80
2022-09-27T13:32:34.342Z,53.70
2022-09-27T13:35:24.212Z,53.60
2022-09-27T13:37:59.989Z,53.80
2022-09-27T13:40:36.650Z,53.60
2022-09-27T13:43:17.479Z,53.50
2022-09-27T13:46:01.513Z,53.50
2022-09-27T13:48:45.689Z,53.70
2022-09-27T13:51:51.483Z,53.70
2022-09-27T13:54:38.958Z,53.60
2022-09-27T13:57:09.572Z,53.60
2022-09-27T13:59:52.695Z,53.60
2022-09-27T14:02:27.365Z,53.50
2022-09-27T14:04:55.075Z,53.50
2022-09-27T14:07:23.609Z,53.60
2022-09-27T14:09:52.799Z,53.60
2022-09-27T14:12:21.446Z,53.70
2022-09-27T14:14:49.441Z,53.70
2022-09-27T14:17:16.012Z,53.70
2022-09-27T14:19:44.521Z,53.80
2022-09-27T14:22:18.686Z,54.30
2022-09-27T14:24:47.365Z,54.90
2022-09-27T14:27:25.189Z,55.00
2022-09-27T14:30:21.986Z,55.60
2022-09-27T14:32:53.950Z,54.80
2022-09-27T14:35:41.156Z,54.70
2022-09-27T14:38:36.972Z,54.40
2022-09-27T14:41:07.403Z,54.20
2022-09-27T14:43:34.762Z,54.10
2022-09-27T14:46:09.062Z,54.00
2022-09-27T14:48:36.712Z,54.00
2022-09-27T14:51:14.987Z,54.20
2022-09-27T14:53:41.685Z,54.80
2022-09-27T14:56:16.123Z,54.40
2022-09-27T14:58:47.603Z,54.20
2022-09-27T15:01:19.922Z,54.10
2022-09-27T15:03:48.644Z,54.10
2022-09-27T15:06:16.270Z,54.20
2022-09-27T15:08:44.658Z,54.10
2022-09-27T15:11:11.215Z,54.20
2022-09-27T15:13:37.861Z,54.20
2022-09-27T15:16:09.999Z,54.20
2022-09-27T15:18:42.353Z,54.20
2022-09-27T15:21:10.610Z,54.20
2022-09-27T15:23:42.248Z,54.20
2022-09-27T15:26:15.558Z,54.10
2022-09-27T15:28:46.380Z,54.10
2022-09-27T15:31:13.483Z,54.20
2022-09-27T15:33:40.439Z,54.20
2022-09-27T15:36:08.320Z,54.00
2022-09-27T15:38:40.546Z,54.20
2022-09-27T15:41:21.052Z,54.40
2022-09-27T15:43:51.052Z,54.50
2022-09-27T15:46:24.593Z,54.30
2022-09-27T15:49:23.339Z,54.30
2022-09-27T15:51:51.655Z,54.70
2022-09-27T15:54:19.666Z,54.90
2022-09-27T15:56:49.029Z,54.90
2022-09-27T15:59:22.418Z,55.10
2022-09-27T16:01:49.406Z,54.90
2022-09-27T16:04:16.026Z,55.90
2022-09-27T16:06:44.171Z,55.50
2022-09-27T16:09:16.442Z,55.50
2022-09-27T16:11:43.505Z,55.10
2022-09-27T16:14:10.090Z,55.20
2022-09-27T16:16:36.916Z,55.30
2022-09-27T16:19:03.571Z,55.00
2022-09-27T16:21:32.689Z,55.00
2022-09-27T16:24:02.887Z,55.30
2022-09-27T16:26:32.048Z,55.20
2022-09-27T16:28:58.645Z,55.30
2022-09-27T16:31:25.235Z,55.10
2022-09-27T16:33:51.894Z,55.20
2022-09-27T16:36:20.488Z,55.00
2022-09-27T16:38:51.145Z,55.20
2022-09-27T16:41:18.700Z,55.20
2022-09-27T16:43:45.589Z,55.30
2022-09-27T16:46:14.413Z,54.90
2022-09-27T16:48:41.046Z,55.30
2022-09-27T16:51:32.019Z,55.50
2022-09-27T16:53:58.584Z,55.60
2022-09-27T16:56:25.141Z,55.00
2022-09-27T16:58:52.238Z,55.00
2022-09-27T17:01:18.854Z,54.70
2022-09-27T17:03:51.059Z,54.60
2022-09-27T17:06:20.209Z,54.60
2022-09-27T17:08:46.970Z,54.60
2022-09-27T17:11:15.328Z,54.60
2022-09-27T17:13:42.986Z,54.60
2022-09-27T17:16:11.035Z,54.50
2022-09-27T17:18:40.800Z,54.40
2022-09-27T17:21:07.931Z,54.40
2022-09-27T17:23:34.694Z,54.40
2022-09-27T17:26:09.049Z,54.50
2022-09-27T17:28:36.567Z,54.40
2022-09-27T17:31:04.767Z,54.30
2022-09-27T17:33:31.801Z,54.40
2022-09-27T17:36:02.885Z,54.90
2022-09-27T17:38:29.610Z,55.20
2022-09-27T17:41:07.566Z,55.10
2022-09-27T17:43:35.519Z,54.90
2022-09-27T17:46:03.550Z,54.80
2022-09-27T17:48:48.824Z,54.60
2022-09-27T17:51:15.476Z,54.50
2022-09-27T17:53:42.074Z,54.40
2022-09-27T17:56:08.615Z,54.40
2022-09-27T17:58:35.197Z,54.40
2022-09-27T18:01:05.555Z,54.30
2022-09-27T18:03:32.158Z,54.20
2022-09-27T18:05:59.029Z,54.20
2022-09-27T18:08:30.338Z,54.20
2022-09-27T18:10:56.924Z,54.20
2022-09-27T18:13:23.543Z,54.20
2022-09-27T18:15:59.688Z,54.20
2022-09-27T18:18:28.144Z,54.10
2022-09-27T18:20:55.250Z,54.10
2022-09-27T18:23:22.186Z,54.10
2022-09-27T18:25:55.730Z,54.00
2022-09-27T18:28:29.689Z,54.00
2022-09-27T18:31:00.685Z,54.00
2022-09-27T18:33:27.317Z,53.90
2022-09-27T18:35:53.885Z,54.10
2022-09-27T18:38:20.446Z,54.10
2022-09-27T18:40:56.302Z,53.90
2022-09-27T18:43:26.119Z,53.70
2022-09-27T18:45:52.710Z,53.80
2022-09-27T18:48:19.264Z,53.90
2022-09-27T18:50:45.827Z,53.70
2022-09-27T18:53:12.455Z,53.80
2022-09-27T18:55:39.782Z,53.80
2022-09-27T18:58:06.397Z,53.90
2022-09-27T19:00:33.038Z,54.00
2022-09-27T19:02:59.627Z,53.90
2022-09-27T19:05:26.187Z,54.00
2022-09-27T19:07:52.744Z,54.10
2022-09-27T19:10:19.311Z,54.20
2022-09-27T19:12:45.885Z,54.20
2022-09-27T19:15:12.425Z,54.10
2022-09-27T19:17:39.029Z,54.00
2022-09-27T19:20:07.567Z,54.00
2022-09-27T19:22:34.156Z,54.00
2022-09-27T19:25:00.707Z,54.00
2022-09-27T19:27:27.255Z,54.10
2022-09-27T19:29:58.943Z,54.10
2022-09-27T19:32:25.766Z,54.00
2022-09-27T19:34:52.317Z,53.90
2022-09-27T19:37:18.872Z,54.00
2022-09-27T19:39:45.438Z,54.00
2022-09-27T19:42:12.008Z,53.90
2022-09-27T19:44:38.566Z,54.00
2022-09-27T19:47:05.214Z,54.00
2022-09-27T19:49:31.802Z,54.00
2022-09-27T19:51:58.369Z,54.00
2022-09-27T19:54:24.974Z,54.60
2022-09-27T19:56:51.558Z,54.20
2022-09-27T19:59:18.236Z,54.20
2022-09-27T20:01:45.084Z,54.20
2022-09-27T20:04:12.843Z,54.20
2022-09-27T20:06:39.397Z,54.10
2022-09-27T20:09:05.969Z,54.10
2022-09-27T20:11:33.912Z,54.20
2022-09-27T20:14:00.486Z,54.80
2022-09-27T20:16:27.198Z,55.00
2022-09-27T20:18:54.919Z,55.00
2022-09-27T20:21:22.252Z,54.80
2022-09-27T20:23:49.966Z,54.80
2022-09-27T20:26:17.077Z,54.70
2022-09-27T20:28:45.084Z,54.70
2022-09-27T20:31:13.199Z,54.60
2022-09-27T20:33:44.022Z,54.40
2022-09-27T20:36:15.529Z,54.50
2022-09-27T20:38:49.150Z,54.50
2022-09-27T20:41:17.694Z,54.40
2022-09-27T20:43:44.568Z,54.40
2022-09-27T20:46:13.219Z,54.30
2022-09-27T20:48:40.055Z,54.30
2022-09-27T20:51:06.995Z,54.20
2022-09-27T20:53:33.756Z,54.20
2022-09-27T20:56:02.636Z,54.20
2022-09-27T20:58:29.404Z,54.10
2022-09-27T21:00:56.023Z,54.20
2022-09-27T21:03:22.642Z,54.10
2022-09-27T21:05:56.024Z,54.20
2022-09-27T21:08:22.801Z,54.20
2022-09-27T21:10:52.620Z,54.20
2022-09-27T21:13:19.618Z,54.20
2022-09-27T21:15:47.425Z,54.20
2022-09-27T21:18:14.034Z,54.80
2022-09-27T21:20:40.635Z,54.00
2022-09-27T21:23:07.194Z,54.10
2022-09-27T21:25:33.750Z,54.00
2022-09-27T21:28:01.568Z,54.00
2022-09-27T21:30:28.718Z,54.70
2022-09-27T21:32:55.548Z,54.00
2022-09-27T21:35:22.346Z,54.00
2022-09-27T21:37:49.055Z,54.10
2022-09-27T21:40:16.316Z,54.00
2022-09-27T21:42:42.891Z,53.90
2022-09-27T21:45:10.185Z,54.00
2022-09-27T21:47:36.735Z,54.00
2022-09-27T21:50:03.421Z,54.00
2022-09-27T21:52:29.957Z,54.00
2022-09-27T21:54:56.870Z,54.00
2022-09-27T21:57:23.420Z,54.00
2022-09-27T21:59:49.991Z,54.00
2022-09-27T22:02:19.259Z,54.00
2022-09-27T22:04:45.910Z,54.00
2022-09-27T22:07:12.449Z,54.60
2022-09-27T22:09:39.017Z,53.90
2022-09-27T22:12:06.183Z,54.00
2022-09-27T22:14:34.113Z,54.00
2022-09-27T22:17:00.667Z,54.00
2022-09-27T22:19:27.227Z,54.00
2022-09-27T22:21:53.783Z,54.00
2022-09-27T22:24:20.351Z,54.00
2022-09-27T22:26:48.636Z,53.90
2022-09-27T22:29:15.314Z,53.90
2022-09-27T22:31:42.045Z,53.90
2022-09-27T22:34:16.029Z,53.90
2022-09-27T22:36:42.627Z,53.90
2022-09-27T22:39:09.270Z,53.80
2022-09-27T22:41:36.098Z,53.80
2022-09-27T22:44:02.664Z,53.70
2022-09-27T22:46:29.382Z,53.80
2022-09-27T22:48:56.005Z,53.80
2022-09-27T22:51:22.649Z,53.70
2022-09-27T22:53:49.450Z,53.80
2022-09-27T22:56:19.560Z,53.80
2022-09-27T22:58:47.193Z,53.80
2022-09-27T23:01:21.245Z,53.80
2022-09-27T23:03:49.005Z,53.80
2022-09-27T23:06:16.642Z,53.80
2022-09-27T23:08:43.337Z,53.70
2022-09-27T23:11:11.306Z,53.70
2022-09-27T23:13:41.717Z,53.70
2022-09-27T23:16:13.079Z,53.80
2022-09-27T23:18:39.714Z,53.80
2022-09-27T23:21:08.359Z,53.80
2022-09-27T23:23:35.701Z,53.80
2022-09-27T23:26:04.363Z,53.80
2022-09-27T23:28:31.022Z,53.90
2022-09-27T23:31:03.336Z,53.80
2022-09-27T23:33:29.902Z,53.90
2022-09-27T23:35:56.449Z,53.80
2022-09-27T23:38:22.994Z,53.80
2022-09-27T23:40:49.645Z,53.90
2022-09-27T23:43:16.217Z,53.80
2022-09-27T23:45:43.366Z,53.80
2022-09-27T23:48:12.784Z,53.90
2022-09-27T23:50:40.244Z,53.90
2022-09-27T23:53:06.809Z,53.90
2022-09-27T23:55:33.363Z,53.90
2022-09-27T23:57:59.910Z,53.90
